Wawasan Ruby — 3EVU7 — position and weather

sailwx.info

Track history (hours):
 
Tides and Currents Weather Stations Pressure Air Temp Water Temp Dewpoint Dewpoint Depression Visibility Wind Speed Wind Dir Waves Ship Positions

Wawasan Ruby

Last reported at 2017-Jan-24 13:32 UTC. Time now 2017-Jan-24 21:32 UTC.
Position N 01°14' E 103°59'.

Length 146 m; draft 9.7 m.

Type: Tanker. MMSI: 355619000.

Date/timePositionNaut miles runAvg speedWind from/ knotsBaromVisibWave heightAir tempDewpointWater temp
2017-Jan-24 13:32N 01°14' E 103°59'1010.0
2017-Jan-24 12:32N 01°10' E 103°50'9 2.6
2017-Jan-24 09:04N 01°14' E 103°42'2 0.0
2017-Jan-22 19:31N 01°16' E 103°41'  
2017-Jan-18 15:33N 01°18' E 103°41'5 4.6
2017-Jan-18 14:30N 01°14' E 103°39'1 0.0
2017-Jan-17 09:18N 01°13' E 103°38'2 2.7
2017-Jan-17 08:33N 01°12' E 103°40'7 7.2
2017-Jan-17 07:33N 01°10' E 103°46'9 9.4
2017-Jan-17 06:33N 01°14' E 103°55'  
Track history (hours):
 
Tides and Currents Weather Stations Pressure Air Temp Water Temp Dewpoint Dewpoint Depression Visibility Wind Speed Wind Dir Waves Ship Positions

Wawasan Ruby

Last reported at 2017-Jan-24 13:32 UTC. Time now 2017-Jan-24 21:32 UTC.
Position N 01°14' E 103°59'.

Length 146 m; draft 9.7 m.

Type: Tanker. MMSI: 355619000.

Date/timePositionNaut miles runAvg speedWind from/ knotsBaromVisibWave heightAir tempDewpointWater temp
2017-Jan-24 13:32N 01°14' E 103°59'1010.0
2017-Jan-24 12:32N 01°10' E 103°50'9 2.6
2017-Jan-24 09:04N 01°14' E 103°42'2 0.0
2017-Jan-22 19:31N 01°16' E 103°41'  
2017-Jan-18 15:33N 01°18' E 103°41'5 4.6
2017-Jan-18 14:30N 01°14' E 103°39'1 0.0
2017-Jan-17 09:18N 01°13' E 103°38'2 2.7
2017-Jan-17 08:33N 01°12' E 103°40'7 7.2
2017-Jan-17 07:33N 01°10' E 103°46'9 9.4
2017-Jan-17 06:33N 01°14' E 103°55'  

Dump ship's entire track history